Weather at Fatmawati Soekarno Airport

Public forecast

Using degrees Celsius for public forecast. Weather courtesy of forecast.io.

Closest aviation weather report (METAR) to Fatmawati Soekarno Airport

Closest report is Sultan Mahmud Badaruddin II Airport, 152.8 nm (283.0 km) ENE. Retrieved 2021/10/22 00:30 UTC (13 minutes ago):

WIPP 220030Z 23003KT 8000 FEW010 26/24 Q1013 NOSIG

Closest aviation forecast (TAF) to Fatmawati Soekarno Airport

Retrieved UTC (0 seconds ago):